sensor_id;sensor_type;location;lat;lon;timestamp;temperature;humidity
53978;DHT22;39886;47.984;-1.586;2023-03-11T00:00:29;17.30;60.90
53978;DHT22;39886;47.984;-1.586;2023-03-11T00:02:58;17.30;60.90
53978;DHT22;39886;47.984;-1.586;2023-03-11T00:05:27;17.20;60.90
53978;DHT22;39886;47.984;-1.586;2023-03-11T00:07:53;17.30;61.00
53978;DHT22;39886;47.984;-1.586;2023-03-11T00:10:25;17.30;61.00
53978;DHT22;39886;47.984;-1.586;2023-03-11T00:12:51;17.20;60.90
53978;DHT22;39886;47.984;-1.586;2023-03-11T00:15:17;17.20;61.00
53978;DHT22;39886;47.984;-1.586;2023-03-11T00:17:43;17.20;60.90
53978;DHT22;39886;47.984;-1.586;2023-03-11T00:20:19;17.20;60.90
53978;DHT22;39886;47.984;-1.586;2023-03-11T00:22:46;17.20;61.00
53978;DHT22;39886;47.984;-1.586;2023-03-11T00:25:13;17.20;61.00
53978;DHT22;39886;47.984;-1.586;2023-03-11T00:27:39;17.20;61.00
53978;DHT22;39886;47.984;-1.586;2023-03-11T00:30:05;17.20;61.00
53978;DHT22;39886;47.984;-1.586;2023-03-11T00:32:31;17.20;61.00
53978;DHT22;39886;47.984;-1.586;2023-03-11T00:34:57;17.20;61.00
53978;DHT22;39886;47.984;-1.586;2023-03-11T00:37:23;17.20;61.00
53978;DHT22;39886;47.984;-1.586;2023-03-11T00:39:48;17.10;61.00
53978;DHT22;39886;47.984;-1.586;2023-03-11T00:42:14;17.20;61.00
53978;DHT22;39886;47.984;-1.586;2023-03-11T00:44:40;17.10;61.00
53978;DHT22;39886;47.984;-1.586;2023-03-11T00:47:07;17.10;61.00
53978;DHT22;39886;47.984;-1.586;2023-03-11T00:49:33;17.10;61.00
53978;DHT22;39886;47.984;-1.586;2023-03-11T00:51:59;17.10;61.00
53978;DHT22;39886;47.984;-1.586;2023-03-11T00:54:24;17.10;61.00
53978;DHT22;39886;47.984;-1.586;2023-03-11T00:56:50;17.10;61.00
53978;DHT22;39886;47.984;-1.586;2023-03-11T00:59:16;17.10;61.00
53978;DHT22;39886;47.984;-1.586;2023-03-11T01:01:42;17.10;61.10
53978;DHT22;39886;47.984;-1.586;2023-03-11T01:04:07;17.10;61.10
53978;DHT22;39886;47.984;-1.586;2023-03-11T01:06:33;17.10;61.10
53978;DHT22;39886;47.984;-1.586;2023-03-11T01:08:59;17.10;61.10
53978;DHT22;39886;47.984;-1.586;2023-03-11T01:11:25;17.10;61.10
53978;DHT22;39886;47.984;-1.586;2023-03-11T01:13:50;17.10;61.10
53978;DHT22;39886;47.984;-1.586;2023-03-11T01:16:16;17.10;61.10
53978;DHT22;39886;47.984;-1.586;2023-03-11T01:18:42;17.10;61.10
53978;DHT22;39886;47.984;-1.586;2023-03-11T01:21:08;17.10;61.80
53978;DHT22;39886;47.984;-1.586;2023-03-11T01:23:33;17.10;61.10
53978;DHT22;39886;47.984;-1.586;2023-03-11T01:25:59;17.10;61.10
53978;DHT22;39886;47.984;-1.586;2023-03-11T01:28:25;17.00;61.10
53978;DHT22;39886;47.984;-1.586;2023-03-11T01:30:50;17.00;61.10
53978;DHT22;39886;47.984;-1.586;2023-03-11T01:33:18;17.00;61.10
53978;DHT22;39886;47.984;-1.586;2023-03-11T01:35:44;17.00;61.10
53978;DHT22;39886;47.984;-1.586;2023-03-11T01:38:11;17.00;61.10
53978;DHT22;39886;47.984;-1.586;2023-03-11T01:40:48;17.00;61.10
53978;DHT22;39886;47.984;-1.586;2023-03-11T01:43:40;17.00;61.10
53978;DHT22;39886;47.984;-1.586;2023-03-11T01:46:17;17.00;61.10
53978;DHT22;39886;47.984;-1.586;2023-03-11T01:48:49;17.00;61.10
53978;DHT22;39886;47.984;-1.586;2023-03-11T01:51:19;17.00;61.20
53978;DHT22;39886;47.984;-1.586;2023-03-11T01:53:46;17.00;61.10
53978;DHT22;39886;47.984;-1.586;2023-03-11T01:56:12;17.00;61.10
53978;DHT22;39886;47.984;-1.586;2023-03-11T01:58:41;17.00;61.10
53978;DHT22;39886;47.984;-1.586;2023-03-11T02:01:10;17.00;61.10
53978;DHT22;39886;47.984;-1.586;2023-03-11T02:03:39;17.00;61.10
53978;DHT22;39886;47.984;-1.586;2023-03-11T02:06:08;17.00;61.20
53978;DHT22;39886;47.984;-1.586;2023-03-11T02:08:34;17.00;61.20
53978;DHT22;39886;47.984;-1.586;2023-03-11T02:11:02;16.90;61.10
53978;DHT22;39886;47.984;-1.586;2023-03-11T02:13:31;17.00;61.20
53978;DHT22;39886;47.984;-1.586;2023-03-11T02:15:59;16.90;61.80
53978;DHT22;39886;47.984;-1.586;2023-03-11T02:18:25;16.90;61.10
53978;DHT22;39886;47.984;-1.586;2023-03-11T02:23:31;16.90;61.10
53978;DHT22;39886;47.984;-1.586;2023-03-11T02:26:10;16.90;61.10
53978;DHT22;39886;47.984;-1.586;2023-03-11T02:28:39;16.90;61.20
53978;DHT22;39886;47.984;-1.586;2023-03-11T02:31:05;16.90;61.20
53978;DHT22;39886;47.984;-1.586;2023-03-11T02:33:32;16.90;61.20
53978;DHT22;39886;47.984;-1.586;2023-03-11T02:35:59;16.90;61.20
53978;DHT22;39886;47.984;-1.586;2023-03-11T02:38:25;16.90;61.20
53978;DHT22;39886;47.984;-1.586;2023-03-11T02:40:52;16.90;61.20
53978;DHT22;39886;47.984;-1.586;2023-03-11T02:43:42;16.90;61.20
53978;DHT22;39886;47.984;-1.586;2023-03-11T02:46:09;16.90;61.10
53978;DHT22;39886;47.984;-1.586;2023-03-11T02:48:36;16.90;61.20
53978;DHT22;39886;47.984;-1.586;2023-03-11T02:51:03;16.90;61.20
53978;DHT22;39886;47.984;-1.586;2023-03-11T02:53:31;16.90;61.20
53978;DHT22;39886;47.984;-1.586;2023-03-11T02:55:59;16.90;61.20
53978;DHT22;39886;47.984;-1.586;2023-03-11T02:58:24;16.90;61.20
53978;DHT22;39886;47.984;-1.586;2023-03-11T03:00:50;16.80;61.10
53978;DHT22;39886;47.984;-1.586;2023-03-11T03:03:16;16.80;61.10
53978;DHT22;39886;47.984;-1.586;2023-03-11T03:05:42;16.90;61.20
53978;DHT22;39886;47.984;-1.586;2023-03-11T03:08:07;16.80;61.10
53978;DHT22;39886;47.984;-1.586;2023-03-11T03:10:33;16.90;61.20
53978;DHT22;39886;47.984;-1.586;2023-03-11T03:12:59;16.80;61.20
53978;DHT22;39886;47.984;-1.586;2023-03-11T03:15:25;16.80;61.20
53978;DHT22;39886;47.984;-1.586;2023-03-11T03:17:51;16.80;61.20
53978;DHT22;39886;47.984;-1.586;2023-03-11T03:20:17;16.80;61.20
53978;DHT22;39886;47.984;-1.586;2023-03-11T03:22:43;16.80;61.20
53978;DHT22;39886;47.984;-1.586;2023-03-11T03:25:09;16.80;61.20
53978;DHT22;39886;47.984;-1.586;2023-03-11T03:27:36;16.80;61.10
53978;DHT22;39886;47.984;-1.586;2023-03-11T03:30:03;16.80;61.20
53978;DHT22;39886;47.984;-1.586;2023-03-11T03:32:29;16.80;61.20
53978;DHT22;39886;47.984;-1.586;2023-03-11T03:34:55;16.80;61.30
53978;DHT22;39886;47.984;-1.586;2023-03-11T03:37:25;16.80;61.20
53978;DHT22;39886;47.984;-1.586;2023-03-11T03:39:51;16.80;61.20
53978;DHT22;39886;47.984;-1.586;2023-03-11T03:42:16;16.80;61.30
53978;DHT22;39886;47.984;-1.586;2023-03-11T03:44:42;16.80;61.30
53978;DHT22;39886;47.984;-1.586;2023-03-11T03:47:08;16.80;61.30
53978;DHT22;39886;47.984;-1.586;2023-03-11T03:49:34;16.80;61.30
53978;DHT22;39886;47.984;-1.586;2023-03-11T03:52:00;16.80;61.30
53978;DHT22;39886;47.984;-1.586;2023-03-11T03:54:25;16.80;61.30
53978;DHT22;39886;47.984;-1.586;2023-03-11T03:56:51;16.80;61.30
53978;DHT22;39886;47.984;-1.586;2023-03-11T03:59:17;16.80;61.30
53978;DHT22;39886;47.984;-1.586;2023-03-11T04:01:42;16.80;61.30
53978;DHT22;39886;47.984;-1.586;2023-03-11T04:04:08;16.70;61.20
53978;DHT22;39886;47.984;-1.586;2023-03-11T04:06:34;16.70;61.20
53978;DHT22;39886;47.984;-1.586;2023-03-11T04:09:00;16.70;61.20
53978;DHT22;39886;47.984;-1.586;2023-03-11T04:11:25;16.70;61.20
53978;DHT22;39886;47.984;-1.586;2023-03-11T04:13:51;16.70;61.20
53978;DHT22;39886;47.984;-1.586;2023-03-11T04:16:22;16.70;61.20
53978;DHT22;39886;47.984;-1.586;2023-03-11T04:18:48;16.70;61.20
53978;DHT22;39886;47.984;-1.586;2023-03-11T04:21:14;16.70;61.20
53978;DHT22;39886;47.984;-1.586;2023-03-11T04:23:40;16.70;61.20
53978;DHT22;39886;47.984;-1.586;2023-03-11T04:26:06;16.70;61.30
53978;DHT22;39886;47.984;-1.586;2023-03-11T04:28:32;16.70;61.20
53978;DHT22;39886;47.984;-1.586;2023-03-11T04:30:57;16.70;61.20
53978;DHT22;39886;47.984;-1.586;2023-03-11T04:33:23;16.70;61.20
53978;DHT22;39886;47.984;-1.586;2023-03-11T04:35:49;16.70;61.20
53978;DHT22;39886;47.984;-1.586;2023-03-11T04:38:15;16.70;61.20
53978;DHT22;39886;47.984;-1.586;2023-03-11T04:40:41;16.70;61.20
53978;DHT22;39886;47.984;-1.586;2023-03-11T04:43:07;16.70;61.20
53978;DHT22;39886;47.984;-1.586;2023-03-11T04:45:32;16.70;61.20
53978;DHT22;39886;47.984;-1.586;2023-03-11T04:47:58;16.70;61.20
53978;DHT22;39886;47.984;-1.586;2023-03-11T04:50:24;16.70;61.20
53978;DHT22;39886;47.984;-1.586;2023-03-11T04:52:50;16.60;61.20
53978;DHT22;39886;47.984;-1.586;2023-03-11T04:55:16;16.70;61.20
53978;DHT22;39886;47.984;-1.586;2023-03-11T04:57:42;16.60;61.20
53978;DHT22;39886;47.984;-1.586;2023-03-11T05:00:10;16.70;61.20
53978;DHT22;39886;47.984;-1.586;2023-03-11T05:02:37;16.60;61.80
53978;DHT22;39886;47.984;-1.586;2023-03-11T05:05:03;16.60;61.10
53978;DHT22;39886;47.984;-1.586;2023-03-11T05:07:29;16.60;61.10
53978;DHT22;39886;47.984;-1.586;2023-03-11T05:09:55;16.60;61.10
53978;DHT22;39886;47.984;-1.586;2023-03-11T05:12:21;16.60;61.20
53978;DHT22;39886;47.984;-1.586;2023-03-11T05:14:47;16.60;61.10
53978;DHT22;39886;47.984;-1.586;2023-03-11T05:17:12;16.60;61.10
53978;DHT22;39886;47.984;-1.586;2023-03-11T05:19:39;16.60;61.10
53978;DHT22;39886;47.984;-1.586;2023-03-11T05:22:06;16.60;61.10
53978;DHT22;39886;47.984;-1.586;2023-03-11T05:24:32;16.60;61.10
53978;DHT22;39886;47.984;-1.586;2023-03-11T05:26:58;16.60;61.10
53978;DHT22;39886;47.984;-1.586;2023-03-11T05:29:25;16.60;61.10
53978;DHT22;39886;47.984;-1.586;2023-03-11T05:31:51;16.60;61.10
53978;DHT22;39886;47.984;-1.586;2023-03-11T05:34:17;16.60;61.10
53978;DHT22;39886;47.984;-1.586;2023-03-11T05:36:43;16.60;61.10
53978;DHT22;39886;47.984;-1.586;2023-03-11T05:39:08;16.60;61.10
53978;DHT22;39886;47.984;-1.586;2023-03-11T05:41:34;16.60;61.10
53978;DHT22;39886;47.984;-1.586;2023-03-11T05:44:00;16.60;61.10
53978;DHT22;39886;47.984;-1.586;2023-03-11T05:46:26;16.60;61.10
53978;DHT22;39886;47.984;-1.586;2023-03-11T05:48:52;16.60;61.10
53978;DHT22;39886;47.984;-1.586;2023-03-11T05:51:18;16.60;61.10
53978;DHT22;39886;47.984;-1.586;2023-03-11T05:53:45;16.60;61.10
53978;DHT22;39886;47.984;-1.586;2023-03-11T05:56:18;16.50;61.10
53978;DHT22;39886;47.984;-1.586;2023-03-11T05:58:44;16.60;61.20
53978;DHT22;39886;47.984;-1.586;2023-03-11T06:01:12;16.50;61.10
53978;DHT22;39886;47.984;-1.586;2023-03-11T06:03:40;16.50;61.10
53978;DHT22;39886;47.984;-1.586;2023-03-11T06:06:09;16.50;61.10
53978;DHT22;39886;47.984;-1.586;2023-03-11T06:08:35;16.50;61.10
53978;DHT22;39886;47.984;-1.586;2023-03-11T06:11:02;16.50;61.10
53978;DHT22;39886;47.984;-1.586;2023-03-11T06:13:28;16.50;61.10
53978;DHT22;39886;47.984;-1.586;2023-03-11T06:15:53;16.50;61.10
53978;DHT22;39886;47.984;-1.586;2023-03-11T06:18:19;16.50;61.10
53978;DHT22;39886;47.984;-1.586;2023-03-11T06:20:45;16.50;61.10
53978;DHT22;39886;47.984;-1.586;2023-03-11T06:23:10;16.50;61.10
53978;DHT22;39886;47.984;-1.586;2023-03-11T06:25:36;16.50;61.10
53978;DHT22;39886;47.984;-1.586;2023-03-11T06:28:02;16.50;61.10
53978;DHT22;39886;47.984;-1.586;2023-03-11T06:30:28;16.50;61.10
53978;DHT22;39886;47.984;-1.586;2023-03-11T06:32:54;16.50;61.10
53978;DHT22;39886;47.984;-1.586;2023-03-11T06:35:20;16.50;61.10
53978;DHT22;39886;47.984;-1.586;2023-03-11T06:37:46;16.50;61.10
53978;DHT22;39886;47.984;-1.586;2023-03-11T06:40:12;16.50;61.10
53978;DHT22;39886;47.984;-1.586;2023-03-11T06:42:38;16.50;61.10
53978;DHT22;39886;47.984;-1.586;2023-03-11T06:45:04;16.50;61.10
53978;DHT22;39886;47.984;-1.586;2023-03-11T06:47:30;16.50;61.10
53978;DHT22;39886;47.984;-1.586;2023-03-11T06:49:56;16.50;61.10
53978;DHT22;39886;47.984;-1.586;2023-03-11T06:52:22;16.50;61.10
53978;DHT22;39886;47.984;-1.586;2023-03-11T06:54:48;16.50;61.10
53978;DHT22;39886;47.984;-1.586;2023-03-11T06:57:14;16.50;61.10
53978;DHT22;39886;47.984;-1.586;2023-03-11T06:59:40;16.50;61.10
53978;DHT22;39886;47.984;-1.586;2023-03-11T07:02:06;16.50;61.10
53978;DHT22;39886;47.984;-1.586;2023-03-11T07:04:32;16.50;61.10
53978;DHT22;39886;47.984;-1.586;2023-03-11T07:06:58;16.50;61.00
53978;DHT22;39886;47.984;-1.586;2023-03-11T07:09:24;16.50;61.10
53978;DHT22;39886;47.984;-1.586;2023-03-11T07:11:53;16.50;61.00
53978;DHT22;39886;47.984;-1.586;2023-03-11T07:14:20;16.50;61.10
53978;DHT22;39886;47.984;-1.586;2023-03-11T07:16:46;16.50;61.00
53978;DHT22;39886;47.984;-1.586;2023-03-11T07:19:12;16.50;61.00
53978;DHT22;39886;47.984;-1.586;2023-03-11T07:21:39;16.60;61.00
53978;DHT22;39886;47.984;-1.586;2023-03-11T07:24:05;16.60;60.60
53978;DHT22;39886;47.984;-1.586;2023-03-11T07:26:32;16.80;60.50
53978;DHT22;39886;47.984;-1.586;2023-03-11T07:28:58;16.90;60.20
53978;DHT22;39886;47.984;-1.586;2023-03-11T07:31:26;16.90;60.00
53978;DHT22;39886;47.984;-1.586;2023-03-11T07:33:53;17.00;59.90
53978;DHT22;39886;47.984;-1.586;2023-03-11T07:36:21;17.10;59.70
53978;DHT22;39886;47.984;-1.586;2023-03-11T07:38:48;17.20;59.60
53978;DHT22;39886;47.984;-1.586;2023-03-11T07:41:14;17.20;59.50
53978;DHT22;39886;47.984;-1.586;2023-03-11T07:43:41;17.30;59.40
53978;DHT22;39886;47.984;-1.586;2023-03-11T07:46:13;17.40;59.30
53978;DHT22;39886;47.984;-1.586;2023-03-11T07:48:43;17.40;59.20
53978;DHT22;39886;47.984;-1.586;2023-03-11T07:51:18;17.50;59.10
53978;DHT22;39886;47.984;-1.586;2023-03-11T07:53:45;17.60;59.00
53978;DHT22;39886;47.984;-1.586;2023-03-11T07:56:13;17.60;58.90
53978;DHT22;39886;47.984;-1.586;2023-03-11T07:58:40;17.70;58.80
53978;DHT22;39886;47.984;-1.586;2023-03-11T08:01:08;17.70;58.70
53978;DHT22;39886;47.984;-1.586;2023-03-11T08:03:35;17.70;58.70
53978;DHT22;39886;47.984;-1.586;2023-03-11T08:06:01;17.70;58.90
53978;DHT22;39886;47.984;-1.586;2023-03-11T08:08:27;17.60;59.00
53978;DHT22;39886;47.984;-1.586;2023-03-11T08:10:53;17.50;59.20
53978;DHT22;39886;47.984;-1.586;2023-03-11T08:13:19;17.50;59.30
53978;DHT22;39886;47.984;-1.586;2023-03-11T08:15:45;17.40;59.40
53978;DHT22;39886;47.984;-1.586;2023-03-11T08:18:11;17.40;59.60
53978;DHT22;39886;47.984;-1.586;2023-03-11T08:20:37;17.40;59.60
53978;DHT22;39886;47.984;-1.586;2023-03-11T08:23:04;17.30;59.70
53978;DHT22;39886;47.984;-1.586;2023-03-11T08:25:30;17.30;59.70
53978;DHT22;39886;47.984;-1.586;2023-03-11T08:27:55;17.30;59.70
53978;DHT22;39886;47.984;-1.586;2023-03-11T08:30:21;17.30;59.80
53978;DHT22;39886;47.984;-1.586;2023-03-11T08:32:47;17.30;59.80
53978;DHT22;39886;47.984;-1.586;2023-03-11T08:35:14;17.20;59.80
53978;DHT22;39886;47.984;-1.586;2023-03-11T08:37:39;17.20;59.80
53978;DHT22;39886;47.984;-1.586;2023-03-11T08:40:06;17.20;59.80
53978;DHT22;39886;47.984;-1.586;2023-03-11T08:42:32;17.20;59.80
53978;DHT22;39886;47.984;-1.586;2023-03-11T08:44:58;17.20;59.90
53978;DHT22;39886;47.984;-1.586;2023-03-11T08:47:23;17.20;59.90
53978;DHT22;39886;47.984;-1.586;2023-03-11T08:49:49;17.20;59.90
53978;DHT22;39886;47.984;-1.586;2023-03-11T08:52:15;17.20;59.90
53978;DHT22;39886;47.984;-1.586;2023-03-11T08:54:41;17.20;59.90
53978;DHT22;39886;47.984;-1.586;2023-03-11T08:57:07;17.10;59.90
53978;DHT22;39886;47.984;-1.586;2023-03-11T08:59:33;17.20;59.90
53978;DHT22;39886;47.984;-1.586;2023-03-11T09:01:59;17.20;59.90
53978;DHT22;39886;47.984;-1.586;2023-03-11T09:04:24;17.10;59.90
53978;DHT22;39886;47.984;-1.586;2023-03-11T09:06:50;17.10;59.90
53978;DHT22;39886;47.984;-1.586;2023-03-11T09:09:16;17.10;59.90
53978;DHT22;39886;47.984;-1.586;2023-03-11T09:11:47;17.10;59.90
53978;DHT22;39886;47.984;-1.586;2023-03-11T09:14:13;17.10;59.90
53978;DHT22;39886;47.984;-1.586;2023-03-11T09:16:39;17.10;59.90
53978;DHT22;39886;47.984;-1.586;2023-03-11T09:19:05;17.10;59.90
53978;DHT22;39886;47.984;-1.586;2023-03-11T09:21:35;17.10;59.90
53978;DHT22;39886;47.984;-1.586;2023-03-11T09:24:02;17.10;59.90
53978;DHT22;39886;47.984;-1.586;2023-03-11T09:26:31;17.10;59.90
53978;DHT22;39886;47.984;-1.586;2023-03-11T09:28:57;17.10;59.90
53978;DHT22;39886;47.984;-1.586;2023-03-11T09:31:23;17.10;59.90
53978;DHT22;39886;47.984;-1.586;2023-03-11T09:33:49;17.10;59.90
53978;DHT22;39886;47.984;-1.586;2023-03-11T09:36:18;17.10;59.90
53978;DHT22;39886;47.984;-1.586;2023-03-11T09:38:45;17.10;59.90
53978;DHT22;39886;47.984;-1.586;2023-03-11T09:46:45;17.10;59.90
53978;DHT22;39886;47.984;-1.586;2023-03-11T09:52:08;17.10;59.90
53978;DHT22;39886;47.984;-1.586;2023-03-11T09:54:50;17.10;59.90
53978;DHT22;39886;47.984;-1.586;2023-03-11T09:57:32;17.10;59.90
53978;DHT22;39886;47.984;-1.586;2023-03-11T10:00:00;17.10;59.90
53978;DHT22;39886;47.984;-1.586;2023-03-11T10:02:27;17.10;59.90
53978;DHT22;39886;47.984;-1.586;2023-03-11T10:05:03;17.10;59.90
53978;DHT22;39886;47.984;-1.586;2023-03-11T10:07:40;17.10;59.90
53978;DHT22;39886;47.984;-1.586;2023-03-11T10:10:12;17.10;59.90
53978;DHT22;39886;47.984;-1.586;2023-03-11T10:12:58;17.10;59.90
53978;DHT22;39886;47.984;-1.586;2023-03-11T10:15:52;17.10;59.90
53978;DHT22;39886;47.984;-1.586;2023-03-11T10:18:42;17.10;59.90
53978;DHT22;39886;47.984;-1.586;2023-03-11T10:26:36;17.10;59.90
53978;DHT22;39886;47.984;-1.586;2023-03-11T10:29:18;17.10;59.90
53978;DHT22;39886;47.984;-1.586;2023-03-11T10:32:05;17.20;60.00
53978;DHT22;39886;47.984;-1.586;2023-03-11T10:34:38;17.10;59.90
53978;DHT22;39886;47.984;-1.586;2023-03-11T10:37:24;17.20;60.00
53978;DHT22;39886;47.984;-1.586;2023-03-11T10:39:52;17.20;60.00
53978;DHT22;39886;47.984;-1.586;2023-03-11T10:42:24;17.20;60.00
53978;DHT22;39886;47.984;-1.586;2023-03-11T10:44:52;17.20;59.90
53978;DHT22;39886;47.984;-1.586;2023-03-11T10:47:21;17.20;59.90
53978;DHT22;39886;47.984;-1.586;2023-03-11T10:49:48;17.20;59.90
53978;DHT22;39886;47.984;-1.586;2023-03-11T10:52:14;17.20;59.90
53978;DHT22;39886;47.984;-1.586;2023-03-11T10:54:45;17.20;59.90
53978;DHT22;39886;47.984;-1.586;2023-03-11T10:57:28;17.20;59.90
53978;DHT22;39886;47.984;-1.586;2023-03-11T10:59:58;17.20;59.90
53978;DHT22;39886;47.984;-1.586;2023-03-11T11:02:37;17.20;59.90
53978;DHT22;39886;47.984;-1.586;2023-03-11T11:08:02;17.20;59.90
53978;DHT22;39886;47.984;-1.586;2023-03-11T11:10:28;17.20;59.90
53978;DHT22;39886;47.984;-1.586;2023-03-11T11:18:33;17.20;59.90
53978;DHT22;39886;47.984;-1.586;2023-03-11T11:21:06;17.20;59.90
53978;DHT22;39886;47.984;-1.586;2023-03-11T11:23:41;17.30;60.00
53978;DHT22;39886;47.984;-1.586;2023-03-11T11:26:34;17.30;60.00
53978;DHT22;39886;47.984;-1.586;2023-03-11T11:29:13;17.30;60.00
53978;DHT22;39886;47.984;-1.586;2023-03-11T11:31:45;17.30;60.00
53978;DHT22;39886;47.984;-1.586;2023-03-11T11:34:31;17.30;60.00
53978;DHT22;39886;47.984;-1.586;2023-03-11T11:36:59;17.30;60.00
53978;DHT22;39886;47.984;-1.586;2023-03-11T11:39:29;17.30;60.00
53978;DHT22;39886;47.984;-1.586;2023-03-11T11:41:56;17.30;60.00
53978;DHT22;39886;47.984;-1.586;2023-03-11T11:44:31;17.30;59.90
53978;DHT22;39886;47.984;-1.586;2023-03-11T11:47:15;17.40;60.00
53978;DHT22;39886;47.984;-1.586;2023-03-11T11:49:51;17.40;60.00
53978;DHT22;39886;47.984;-1.586;2023-03-11T11:52:26;17.30;59.90
53978;DHT22;39886;47.984;-1.586;2023-03-11T11:55:01;17.30;60.00
53978;DHT22;39886;47.984;-1.586;2023-03-11T11:57:27;17.40;60.00
53978;DHT22;39886;47.984;-1.586;2023-03-11T11:59:54;17.40;60.00
53978;DHT22;39886;47.984;-1.586;2023-03-11T12:05:30;17.40;60.00
53978;DHT22;39886;47.984;-1.586;2023-03-11T12:08:16;17.40;60.00
53978;DHT22;39886;47.984;-1.586;2023-03-11T12:18:58;17.40;60.00
53978;DHT22;39886;47.984;-1.586;2023-03-11T12:27:17;17.40;60.00
53978;DHT22;39886;47.984;-1.586;2023-03-11T12:29:48;17.50;60.10
53978;DHT22;39886;47.984;-1.586;2023-03-11T12:32:46;17.50;60.10
53978;DHT22;39886;47.984;-1.586;2023-03-11T12:35:28;17.50;60.10
53978;DHT22;39886;47.984;-1.586;2023-03-11T12:45:52;17.50;60.10
53978;DHT22;39886;47.984;-1.586;2023-03-11T12:50:58;17.50;60.10
53978;DHT22;39886;47.984;-1.586;2023-03-11T12:53:45;17.50;60.10
53978;DHT22;39886;47.984;-1.586;2023-03-11T12:56:35;17.50;60.10
53978;DHT22;39886;47.984;-1.586;2023-03-11T13:04:57;17.60;60.10
53978;DHT22;39886;47.984;-1.586;2023-03-11T13:07:45;17.50;60.10
53978;DHT22;39886;47.984;-1.586;2023-03-11T13:12:51;17.60;60.10
53978;DHT22;39886;47.984;-1.586;2023-03-11T13:18:29;17.60;60.20
53978;DHT22;39886;47.984;-1.586;2023-03-11T13:21:02;17.60;60.10
53978;DHT22;39886;47.984;-1.586;2023-03-11T13:23:36;17.60;60.20
53978;DHT22;39886;47.984;-1.586;2023-03-11T13:34:56;17.60;60.20
53978;DHT22;39886;47.984;-1.586;2023-03-11T13:43:24;17.70;60.20
53978;DHT22;39886;47.984;-1.586;2023-03-11T13:46:18;17.70;60.20
53978;DHT22;39886;47.984;-1.586;2023-03-11T13:48:50;17.70;60.20
53978;DHT22;39886;47.984;-1.586;2023-03-11T13:51:23;17.70;60.20
53978;DHT22;39886;47.984;-1.586;2023-03-11T13:53:56;17.70;60.20
53978;DHT22;39886;47.984;-1.586;2023-03-11T13:56:30;17.70;60.10
53978;DHT22;39886;47.984;-1.586;2023-03-11T14:01:51;17.80;60.20
53978;DHT22;39886;47.984;-1.586;2023-03-11T14:04:24;17.80;60.20
53978;DHT22;39886;47.984;-1.586;2023-03-11T14:06:51;17.80;60.20
53978;DHT22;39886;47.984;-1.586;2023-03-11T14:09:25;17.80;60.20
53978;DHT22;39886;47.984;-1.586;2023-03-11T14:11:53;17.90;60.10
53978;DHT22;39886;47.984;-1.586;2023-03-11T14:14:53;17.90;60.10
53978;DHT22;39886;47.984;-1.586;2023-03-11T14:17:20;17.90;60.00
53978;DHT22;39886;47.984;-1.586;2023-03-11T14:20:04;17.90;60.10
53978;DHT22;39886;47.984;-1.586;2023-03-11T14:22:31;17.90;60.10
53978;DHT22;39886;47.984;-1.586;2023-03-11T14:25:00;17.90;60.10
53978;DHT22;39886;47.984;-1.586;2023-03-11T14:27:26;17.90;60.10
53978;DHT22;39886;47.984;-1.586;2023-03-11T14:29:52;17.90;60.10
53978;DHT22;39886;47.984;-1.586;2023-03-11T14:32:32;17.90;60.20
53978;DHT22;39886;47.984;-1.586;2023-03-11T14:34:58;17.90;60.20
53978;DHT22;39886;47.984;-1.586;2023-03-11T14:37:30;17.90;60.20
53978;DHT22;39886;47.984;-1.586;2023-03-11T14:39:57;18.00;60.30
53978;DHT22;39886;47.984;-1.586;2023-03-11T14:45:04;18.10;60.00
53978;DHT22;39886;47.984;-1.586;2023-03-11T14:48:26;18.30;59.40
53978;DHT22;39886;47.984;-1.586;2023-03-11T14:50:29;18.40;59.00
53978;DHT22;39886;47.984;-1.586;2023-03-11T14:55:34;18.60;58.60
53978;DHT22;39886;47.984;-1.586;2023-03-11T15:00:52;18.70;58.30
53978;DHT22;39886;47.984;-1.586;2023-03-11T15:03:28;18.70;58.40
53978;DHT22;39886;47.984;-1.586;2023-03-11T15:06:00;18.80;58.40
53978;DHT22;39886;47.984;-1.586;2023-03-11T15:08:33;18.80;58.20
53978;DHT22;39886;47.984;-1.586;2023-03-11T15:13:34;18.80;58.40
53978;DHT22;39886;47.984;-1.586;2023-03-11T15:16:02;18.80;58.50
53978;DHT22;39886;47.984;-1.586;2023-03-11T15:18:31;18.70;58.60
53978;DHT22;39886;47.984;-1.586;2023-03-11T15:21:10;18.70;58.70
53978;DHT22;39886;47.984;-1.586;2023-03-11T15:23:36;18.70;58.70
53978;DHT22;39886;47.984;-1.586;2023-03-11T15:26:02;18.70;58.70
53978;DHT22;39886;47.984;-1.586;2023-03-11T15:28:33;18.70;58.80
53978;DHT22;39886;47.984;-1.586;2023-03-11T15:31:33;18.70;58.80
53978;DHT22;39886;47.984;-1.586;2023-03-11T15:39:19;18.80;58.60
53978;DHT22;39886;47.984;-1.586;2023-03-11T15:41:56;18.90;58.70
53978;DHT22;39886;47.984;-1.586;2023-03-11T15:44:39;18.80;58.70
53978;DHT22;39886;47.984;-1.586;2023-03-11T15:47:15;18.80;58.80
53978;DHT22;39886;47.984;-1.586;2023-03-11T15:49:41;18.80;58.90
53978;DHT22;39886;47.984;-1.586;2023-03-11T15:52:07;18.80;59.00
53978;DHT22;39886;47.984;-1.586;2023-03-11T15:54:33;18.80;59.10
53978;DHT22;39886;47.984;-1.586;2023-03-11T15:56:59;18.80;59.10
53978;DHT22;39886;47.984;-1.586;2023-03-11T15:59:27;18.70;59.10
53978;DHT22;39886;47.984;-1.586;2023-03-11T16:01:53;18.80;59.20
53978;DHT22;39886;47.984;-1.586;2023-03-11T16:04:20;18.80;59.20
53978;DHT22;39886;47.984;-1.586;2023-03-11T16:06:47;18.70;59.20
53978;DHT22;39886;47.984;-1.586;2023-03-11T16:09:14;18.70;59.30
53978;DHT22;39886;47.984;-1.586;2023-03-11T16:11:40;18.70;59.40
53978;DHT22;39886;47.984;-1.586;2023-03-11T16:14:17;18.70;59.40
53978;DHT22;39886;47.984;-1.586;2023-03-11T16:16:43;18.70;59.50
53978;DHT22;39886;47.984;-1.586;2023-03-11T16:19:10;18.70;59.50
53978;DHT22;39886;47.984;-1.586;2023-03-11T16:21:46;18.70;59.60
53978;DHT22;39886;47.984;-1.586;2023-03-11T16:24:19;18.70;59.60
53978;DHT22;39886;47.984;-1.586;2023-03-11T16:26:45;18.70;59.60
53978;DHT22;39886;47.984;-1.586;2023-03-11T16:29:11;18.70;59.70
53978;DHT22;39886;47.984;-1.586;2023-03-11T16:31:37;18.70;59.70
53978;DHT22;39886;47.984;-1.586;2023-03-11T16:34:02;18.70;59.80
53978;DHT22;39886;47.984;-1.586;2023-03-11T16:36:28;18.70;59.80
53978;DHT22;39886;47.984;-1.586;2023-03-11T16:38:54;18.70;59.80
53978;DHT22;39886;47.984;-1.586;2023-03-11T16:41:20;18.70;59.80
53978;DHT22;39886;47.984;-1.586;2023-03-11T16:43:45;18.70;59.90
53978;DHT22;39886;47.984;-1.586;2023-03-11T16:46:11;18.60;59.80
53978;DHT22;39886;47.984;-1.586;2023-03-11T16:48:37;18.60;59.80
53978;DHT22;39886;47.984;-1.586;2023-03-11T16:51:03;18.60;59.90
53978;DHT22;39886;47.984;-1.586;2023-03-11T16:53:29;18.60;59.90
53978;DHT22;39886;47.984;-1.586;2023-03-11T16:55:55;18.60;59.90
53978;DHT22;39886;47.984;-1.586;2023-03-11T16:58:20;18.70;60.00
53978;DHT22;39886;47.984;-1.586;2023-03-11T17:00:46;18.70;60.00
53978;DHT22;39886;47.984;-1.586;2023-03-11T17:03:14;18.60;60.00